PWSweather.com
Personal Weather Stations
Station Observations
KMACAMBR
Central Square, Cambridge, MA 02139

Central SquareCambridge, MA 02139

Lat: 42.36379, Lon: -71.107902

Elevation: 6

Station Type: Davis Vantage Pro2

https://weather-cambridge.keneli.org

Latest ConditionsUpdated 2:55:00 AM EST Thursday, Dec 12, 2019
Currently Today's Max Today's Min Today's Average
Temperature 26.8°F-2.9°C 28.3°F-2.1°C 26.8°F-2.9°C 27.8°F-2.3°C
Dew Point 18.3°F-7.6°C 24.1°F-4.4°C 18.2°F-7.7°C 20.9°F-6.2°C
Winds 4.0 mph WSW6.4 kmh WSW 7.0 mph -11.3 kmh - - 4.6 mph 7.4 kmh
Wind Gusts 9.0 mph14.5 kmh 17.0 mph27.4 kmh - -
Humidity 70% 84% 69% 75%
Pressure 30.45 in1031.2 mb 30.45 in1031.2 mb 30.33 in1027.1 mb -
Hour Temp Dew Point Humidity Winds Wind Gusts Pressure Precip Precip Rate Daily Precip Total
02:55 AM 26.8°F-2.9°C 18.3°F-7.6°C 70% 4.0 mph WSW6.4 kmh WSW 9.0 mph14.5 kmh 30.45 in1031.2 mb 0.00 in0.0 mm 0.00 in0.0 mm 0.00 in0.0 mm
02:50 AM 26.8°F-2.9°C 18.3°F-7.6°C 70% 4.0 mph W6.4 kmh W 9.0 mph14.5 kmh 30.45 in1031.2 mb 0.00 in0.0 mm 0.00 in0.0 mm 0.00 in0.0 mm
02:45 AM 26.9°F-2.8°C 18.4°F-7.6°C 70% 5.0 mph WSW8.0 kmh WSW 11.0 mph17.7 kmh 30.45 in1031.2 mb 0.00 in0.0 mm 0.00 in0.0 mm 0.00 in0.0 mm
02:40 AM 27.0°F-2.8°C 18.2°F-7.7°C 69% 5.0 mph W8.0 kmh W 10.0 mph16.1 kmh 30.45 in1031.2 mb 0.00 in0.0 mm 0.00 in0.0 mm 0.00 in0.0 mm
02:35 AM 27.1°F-2.7°C 18.3°F-7.6°C 69% 4.0 mph WSW6.4 kmh WSW 12.0 mph19.3 kmh 30.44 in1030.8 mb 0.00 in0.0 mm 0.00 in0.0 mm 0.00 in0.0 mm
02:30 AM 27.2°F-2.7°C 18.4°F-7.6°C 69% 6.0 mph W9.7 kmh W 17.0 mph27.4 kmh 30.44 in1030.8 mb 0.00 in0.0 mm 0.00 in0.0 mm 0.00 in0.0 mm
02:25 AM 27.3°F-2.6°C 18.5°F-7.5°C 69% 4.0 mph W6.4 kmh W 17.0 mph27.4 kmh 30.43 in1030.5 mb 0.00 in0.0 mm 0.00 in0.0 mm 0.00 in0.0 mm
02:20 AM 27.5°F-2.5°C 19.0°F-7.2°C 70% 7.0 mph WNW11.3 kmh WNW 17.0 mph27.4 kmh 30.44 in1030.8 mb 0.00 in0.0 mm 0.00 in0.0 mm 0.00 in0.0 mm
02:15 AM 27.5°F-2.5°C 19.0°F-7.2°C 70% 5.0 mph SW8.0 kmh SW 13.0 mph20.9 kmh 30.44 in1030.8 mb 0.00 in0.0 mm 0.00 in0.0 mm 0.00 in0.0 mm
02:10 AM 27.5°F-2.5°C 19.0°F-7.2°C 70% 5.0 mph WSW8.0 kmh WSW 16.0 mph25.7 kmh 30.43 in1030.5 mb 0.00 in0.0 mm 0.00 in0.0 mm 0.00 in0.0 mm
02:05 AM 27.6°F-2.4°C 19.1°F-7.2°C 70% 5.0 mph WNW8.0 kmh WNW 12.0 mph19.3 kmh 30.43 in1030.5 mb 0.00 in0.0 mm 0.00 in0.0 mm 0.00 in0.0 mm
02:00 AM 27.6°F-2.4°C 19.1°F-7.2°C 70% 6.0 mph W9.7 kmh W 14.0 mph22.5 kmh 30.43 in1030.5 mb 0.00 in0.0 mm 0.00 in0.0 mm 0.00 in0.0 mm
01:55 AM 27.7°F-2.4°C 19.2°F-7.1°C 70% 7.0 mph W11.3 kmh W 15.0 mph24.1 kmh 30.42 in1030.1 mb 0.00 in0.0 mm 0.00 in0.0 mm 0.00 in0.0 mm
01:50 AM 27.8°F-2.3°C 19.6°F-6.9°C 71% 7.0 mph WSW11.3 kmh WSW 12.0 mph19.3 kmh 30.41 in1029.8 mb 0.00 in0.0 mm 0.00 in0.0 mm 0.00 in0.0 mm
01:45 AM 27.8°F-2.3°C 19.6°F-6.9°C 71% 7.0 mph WNW11.3 kmh WNW 15.0 mph24.1 kmh 30.41 in1029.8 mb 0.00 in0.0 mm 0.00 in0.0 mm 0.00 in0.0 mm
01:40 AM 27.9°F-2.3°C 20.1°F-6.6°C 72% 5.0 mph WNW8.0 kmh WNW 10.0 mph16.1 kmh 30.41 in1029.8 mb 0.00 in0.0 mm 0.00 in0.0 mm 0.00 in0.0 mm
01:35 AM 27.9°F-2.3°C 20.1°F-6.6°C 72% 5.0 mph WSW8.0 kmh WSW 11.0 mph17.7 kmh 30.41 in1029.8 mb 0.00 in0.0 mm 0.00 in0.0 mm 0.00 in0.0 mm
01:30 AM 28.0°F-2.2°C 20.5°F-6.4°C 73% 5.0 mph W8.0 kmh W 10.0 mph16.1 kmh 30.40 in1029.5 mb 0.00 in0.0 mm 0.00 in0.0 mm 0.00 in0.0 mm
01:25 AM 28.0°F-2.2°C 20.5°F-6.4°C 73% 5.0 mph W8.0 kmh W 13.0 mph20.9 kmh 30.39 in1029.1 mb 0.00 in0.0 mm 0.00 in0.0 mm 0.00 in0.0 mm
01:20 AM 28.1°F-2.2°C 20.9°F-6.2°C 74% 7.0 mph WSW11.3 kmh WSW 14.0 mph22.5 kmh 30.39 in1029.1 mb 0.00 in0.0 mm 0.00 in0.0 mm 0.00 in0.0 mm
01:15 AM 28.1°F-2.2°C 21.2°F-6.0°C 75% 5.0 mph WSW8.0 kmh WSW 13.0 mph20.9 kmh 30.38 in1028.8 mb 0.00 in0.0 mm 0.00 in0.0 mm 0.00 in0.0 mm
01:10 AM 28.1°F-2.2°C 21.5°F-5.8°C 76% 5.0 mph WNW8.0 kmh WNW 13.0 mph20.9 kmh 30.38 in1028.8 mb 0.00 in0.0 mm 0.00 in0.0 mm 0.00 in0.0 mm
01:05 AM 28.2°F-2.1°C 21.6°F-5.8°C 76% 4.0 mph WNW6.4 kmh WNW 11.0 mph17.7 kmh 30.37 in1028.4 mb 0.00 in0.0 mm 0.00 in0.0 mm 0.00 in0.0 mm
01:00 AM 28.2°F-2.1°C 21.9°F-5.6°C 77% 3.0 mph WSW4.8 kmh WSW 8.0 mph12.9 kmh 30.36 in1028.1 mb 0.00 in0.0 mm 0.00 in0.0 mm 0.00 in0.0 mm
12:55 AM 28.1°F-2.2°C 22.1°F-5.5°C 78% 3.0 mph WSW4.8 kmh WSW 7.0 mph11.3 kmh 30.36 in1028.1 mb 0.00 in0.0 mm 0.00 in0.0 mm 0.00 in0.0 mm
12:50 AM 28.1°F-2.2°C 22.4°F-5.3°C 79% 3.0 mph WSW4.8 kmh WSW 7.0 mph11.3 kmh 30.35 in1027.8 mb 0.00 in0.0 mm 0.00 in0.0 mm 0.00 in0.0 mm
12:45 AM 28.1°F-2.2°C 22.7°F-5.2°C 80% 5.0 mph WNW8.0 kmh WNW 15.0 mph24.1 kmh 30.35 in1027.8 mb 0.00 in0.0 mm 0.00 in0.0 mm 0.00 in0.0 mm
12:40 AM 28.1°F-2.2°C 23.0°F-5.0°C 81% 4.0 mph WNW6.4 kmh WNW 15.0 mph24.1 kmh 30.35 in1027.8 mb 0.00 in0.0 mm 0.00 in0.0 mm 0.00 in0.0 mm
12:35 AM 28.1°F-2.2°C 23.3°F-4.8°C 82% 4.0 mph WNW6.4 kmh WNW 11.0 mph17.7 kmh 30.34 in1027.4 mb 0.00 in0.0 mm 0.00 in0.0 mm 0.00 in0.0 mm
12:30 AM 28.1°F-2.2°C 23.6°F-4.7°C 83% 4.0 mph WSW6.4 kmh WSW 12.0 mph19.3 kmh 30.33 in1027.1 mb 0.00 in0.0 mm 0.00 in0.0 mm 0.00 in0.0 mm
12:25 AM 28.1°F-2.2°C 23.9°F-4.5°C 84% 3.0 mph WSW4.8 kmh WSW 8.0 mph12.9 kmh 30.34 in1027.4 mb 0.00 in0.0 mm 0.00 in0.0 mm 0.00 in0.0 mm
12:20 AM 28.1°F-2.2°C 23.9°F-4.5°C 84% 2.0 mph WSW3.2 kmh WSW 6.0 mph9.7 kmh 30.34 in1027.4 mb 0.00 in0.0 mm 0.00 in0.0 mm 0.00 in0.0 mm
12:15 AM 28.2°F-2.1°C 24.0°F-4.4°C 84% 4.0 mph SW6.4 kmh SW 8.0 mph12.9 kmh 30.34 in1027.4 mb 0.00 in0.0 mm 0.00 in0.0 mm 0.00 in0.0 mm
12:10 AM 28.2°F-2.1°C 24.0°F-4.4°C 84% 4.0 mph WSW6.4 kmh WSW 8.0 mph12.9 kmh 30.34 in1027.4 mb 0.00 in0.0 mm 0.00 in0.0 mm 0.00 in0.0 mm
12:05 AM 28.3°F-2.1°C 24.1°F-4.4°C 84% 3.0 mph WSW4.8 kmh WSW 6.0 mph9.7 kmh 30.33 in1027.1 mb 0.00 in0.0 mm 0.00 in0.0 mm 0.00 in0.0 mm
12:00 AM 28.3°F-2.1°C 24.1°F-4.4°C 84% 3.0 mph WSW4.8 kmh WSW 8.0 mph12.9 kmh 30.33 in1027.1 mb 0.00 in0.0 mm 0.00 in0.0 mm 0.08 in2.0 mm